Time;durP1;ratioP1;P1;durP2;ratioP2;P2;SDS_P1;SDS_P2;PMS_P1;PMS_P2;Temp;Humidity;BMP_temperature;BMP_pressure;BME280_temperature;BME280_humidity;BME280_pressure;Samples;Min_cycle;Max_cycle;Signal;HPM_P1;HPM_P2
2023/09/28 00:01:45;;;;;;;27.75;18.42;;;;;;;;;;4975915;28;20392;-63
2023/09/28 00:04:11;;;;;;;26.08;17.08;;;;;;;;;;4975893;28;20022;-63
2023/09/28 00:06:36;;;;;;;25.40;16.27;;;;;;;;;;4975824;28;20107;-63
2023/09/28 00:09:03;;;;;;;21.23;15.45;;;;;;;;;;4975920;28;20338;-63
2023/09/28 00:11:28;;;;;;;22.08;15.55;;;;;;;;;;4975691;28;20476;-63
2023/09/28 00:13:54;;;;;;;24.00;15.35;;;;;;;;;;4975906;28;20041;-63
2023/09/28 00:16:19;;;;;;;21.95;15.18;;;;;;;;;;4975773;28;20109;-63
2023/09/28 00:18:45;;;;;;;20.40;15.27;;;;;;;;;;4975724;28;20117;-63
2023/09/28 00:21:10;;;;;;;21.77;14.85;;;;;;;;;;4975328;28;20114;-63
2023/09/28 00:23:36;;;;;;;25.33;14.10;;;;;;;;;;4975615;28;20342;-63
2023/09/28 00:26:02;;;;;;;18.00;14.02;;;;;;;;;;4975477;28;20046;-63
2023/09/28 00:28:27;;;;;;;21.25;13.13;;;;;;;;;;4975300;28;20100;-63
2023/09/28 00:30:53;;;;;;;21.70;12.60;;;;;;;;;;4975488;28;20114;-64
2023/09/28 00:33:18;;;;;;;19.00;13.68;;;;;;;;;;4975224;28;20027;-64
2023/09/28 00:35:44;;;;;;;18.00;13.35;;;;;;;;;;4975192;28;20027;-63
2023/09/28 00:38:10;;;;;;;21.85;13.27;;;;;;;;;;4975035;28;20042;-64
2023/09/28 00:40:39;;;;;;;16.08;12.85;;;;;;;;;;4975050;28;20099;-63
2023/09/28 00:43:05;;;;;;;19.47;12.90;;;;;;;;;;4975388;28;20042;-63
2023/09/28 00:45:31;;;;;;;16.73;12.60;;;;;;;;;;4975297;28;20019;-63
2023/09/28 00:48:00;;;;;;;16.40;12.25;;;;;;;;;;4974926;28;20050;-63
2023/09/28 00:50:27;;;;;;;16.30;12.52;;;;;;;;;;4974842;28;20492;-63
2023/09/28 00:52:57;;;;;;;18.05;11.93;;;;;;;;;;4975092;28;20067;-63
2023/09/28 00:55:24;;;;;;;16.83;12.43;;;;;;;;;;4974926;28;20027;-63
2023/09/28 00:57:50;;;;;;;19.52;12.95;;;;;;;;;;4974597;28;20026;-63
2023/09/28 01:00:23;;;;;;;17.08;12.35;;;;;;;;;;4974518;28;20022;-63
2023/09/28 01:02:52;;;;;;;18.63;12.32;;;;;;;;;;4974482;28;20078;-63
2023/09/28 01:05:18;;;;;;;17.00;12.18;;;;;;;;;;4974187;28;20392;-63
2023/09/28 01:07:44;;;;;;;14.95;11.27;;;;;;;;;;4973524;28;20041;-63
2023/09/28 01:10:12;;;;;;;15.80;11.52;;;;;;;;;;4974671;28;20027;-63
2023/09/28 01:12:39;;;;;;;17.02;11.63;;;;;;;;;;4974770;28;20367;-63
2023/09/28 01:15:09;;;;;;;13.70;10.90;;;;;;;;;;4974665;28;20110;-63
2023/09/28 01:17:36;;;;;;;17.48;11.40;;;;;;;;;;4974550;28;20019;-63
2023/09/28 01:20:17;;;;;;;20.08;11.13;;;;;;;;;;4973795;28;20073;-63
2023/09/28 01:22:42;;;;;;;16.73;11.18;;;;;;;;;;4973709;28;20015;-63
2023/09/28 01:25:09;;;;;;;15.70;11.52;;;;;;;;;;4963895;28;20023;-64
2023/09/28 01:27:35;;;;;;;17.52;12.25;;;;;;;;;;4971008;28;20069;-63
2023/09/28 01:30:01;;;;;;;17.50;11.10;;;;;;;;;;4973228;28;20066;-63
2023/09/28 01:32:27;;;;;;;17.77;11.73;;;;;;;;;;4971431;28;20082;-63
2023/09/28 01:34:52;;;;;;;19.48;11.20;;;;;;;;;;4973646;28;20035;-63
2023/09/28 01:37:21;;;;;;;20.27;11.20;;;;;;;;;;4973828;28;20385;-63
2023/09/28 01:39:47;;;;;;;17.08;11.60;;;;;;;;;;4971917;28;20432;-63
2023/09/28 01:42:13;;;;;;;15.13;11.38;;;;;;;;;;4973706;28;20019;-63
2023/09/28 01:44:38;;;;;;;16.00;10.85;;;;;;;;;;4974442;28;20027;-63
2023/09/28 01:47:04;;;;;;;15.15;11.50;;;;;;;;;;4973633;28;20019;-63
2023/09/28 01:49:29;;;;;;;14.88;11.45;;;;;;;;;;4973426;28;20034;-63
2023/09/28 01:51:54;;;;;;;18.02;11.45;;;;;;;;;;4973735;28;20376;-63
2023/09/28 01:54:20;;;;;;;18.95;12.25;;;;;;;;;;4973635;28;20027;-63
2023/09/28 01:56:45;;;;;;;19.65;12.45;;;;;;;;;;4971117;28;20035;-63
2023/09/28 01:59:10;;;;;;;22.08;12.38;;;;;;;;;;4973604;28;20030;-65
2023/09/28 02:01:36;;;;;;;17.13;12.95;;;;;;;;;;4972776;28;20429;-63
2023/09/28 02:04:02;;;;;;;18.08;13.02;;;;;;;;;;4973445;28;20026;-63
2023/09/28 02:06:27;;;;;;;20.50;13.20;;;;;;;;;;4973910;28;20051;-63
2023/09/28 02:08:53;;;;;;;19.48;12.93;;;;;;;;;;4973435;28;20023;-63
2023/09/28 02:11:18;;;;;;;17.75;12.63;;;;;;;;;;4973471;28;20034;-64
2023/09/28 02:13:44;;;;;;;22.38;13.57;;;;;;;;;;4973645;28;20022;-66
2023/09/28 02:16:11;;;;;;;22.77;12.80;;;;;;;;;;4974130;28;20037;-63
2023/09/28 02:18:37;;;;;;;20.20;13.13;;;;;;;;;;4975690;28;20089;-64
2023/09/28 02:21:03;;;;;;;16.42;12.32;;;;;;;;;;4978023;28;20031;-63
2023/09/28 02:23:28;;;;;;;16.88;11.60;;;;;;;;;;4977776;28;20031;-64
2023/09/28 02:25:54;;;;;;;17.88;11.98;;;;;;;;;;4977935;28;20026;-63
2023/09/28 02:28:19;;;;;;;14.52;11.50;;;;;;;;;;4977650;28;20089;-64
2023/09/28 02:30:44;;;;;;;18.95;12.05;;;;;;;;;;4977654;28;20393;-64
2023/09/28 02:33:11;;;;;;;18.10;12.15;;;;;;;;;;4977424;28;20045;-63
2023/09/28 02:35:37;;;;;;;17.13;10.98;;;;;;;;;;4977725;28;20506;-63
2023/09/28 02:38:02;;;;;;;16.65;11.48;;;;;;;;;;4977569;28;20113;-66
2023/09/28 02:40:29;;;;;;;16.17;11.05;;;;;;;;;;4991143;28;20077;-63
2023/09/28 02:42:55;;;;;;;17.25;11.32;;;;;;;;;;4977417;28;20050;-63
2023/09/28 02:45:21;;;;;;;17.85;11.65;;;;;;;;;;4977345;28;20033;-63
2023/09/28 02:47:48;;;;;;;17.63;11.35;;;;;;;;;;4976991;28;20051;-63
2023/09/28 02:50:16;;;;;;;21.05;12.15;;;;;;;;;;4977545;28;20480;-63
2023/09/28 02:52:45;;;;;;;15.52;11.75;;;;;;;;;;4977331;28;20448;-63
2023/09/28 02:55:12;;;;;;;25.15;12.20;;;;;;;;;;4977204;28;20158;-65
2023/09/28 02:57:38;;;;;;;16.67;11.68;;;;;;;;;;4976943;28;20026;-63
2023/09/28 03:00:17;;;;;;;15.93;11.63;;;;;;;;;;4977288;28;20057;-63
2023/09/28 03:02:43;;;;;;;16.40;10.80;;;;;;;;;;4968013;28;20117;-63
2023/09/28 03:05:09;;;;;;;15.75;11.65;;;;;;;;;;4957659;28;20105;-63
2023/09/28 03:07:35;;;;;;;16.92;11.65;;;;;;;;;;4957851;29;20028;-62
2023/09/28 03:10:05;;;;;;;15.93;12.20;;;;;;;;;;4957735;28;20417;-63
2023/09/28 03:12:30;;;;;;;17.08;12.63;;;;;;;;;;4957528;28;20027;-63
2023/09/28 03:14:55;;;;;;;23.95;12.90;;;;;;;;;;4957740;28;20078;-63
2023/09/28 03:17:21;;;;;;;19.52;12.68;;;;;;;;;;4956142;28;20042;-63
2023/09/28 03:19:46;;;;;;;20.63;12.90;;;;;;;;;;4957641;29;20027;-64
2023/09/28 03:22:12;;;;;;;16.33;12.30;;;;;;;;;;4957883;28;20030;-63
2023/09/28 03:24:37;;;;;;;20.05;12.50;;;;;;;;;;4976813;28;20049;-63
2023/09/28 03:27:03;;;;;;;18.58;11.82;;;;;;;;;;4976475;28;20465;-63
2023/09/28 03:29:28;;;;;;;21.10;11.80;;;;;;;;;;4975768;28;20030;-63
2023/09/28 03:31:54;;;;;;;17.73;11.63;;;;;;;;;;4976428;28;20081;-63
2023/09/28 03:34:19;;;;;;;18.20;11.73;;;;;;;;;;4976728;28;20030;-63
2023/09/28 03:36:45;;;;;;;18.05;11.70;;;;;;;;;;4976518;28;20085;-63
2023/09/28 03:39:10;;;;;;;19.02;12.25;;;;;;;;;;4981046;28;20076;-63
2023/09/28 03:41:37;;;;;;;16.33;11.65;;;;;;;;;;4985412;28;20073;-63
2023/09/28 03:44:02;;;;;;;22.77;12.20;;;;;;;;;;4976352;28;20548;-63
2023/09/28 03:46:28;;;;;;;22.42;12.30;;;;;;;;;;4976453;28;20062;-62
2023/09/28 03:48:53;;;;;;;21.30;12.70;;;;;;;;;;4975972;28;20097;-63
2023/09/28 03:51:19;;;;;;;18.55;11.88;;;;;;;;;;4976337;28;20047;-63
2023/09/28 03:53:44;;;;;;;23.33;12.70;;;;;;;;;;4976404;28;20023;-62
2023/09/28 03:56:09;;;;;;;20.52;12.60;;;;;;;;;;4995338;28;20077;-63
2023/09/28 03:58:35;;;;;;;20.90;12.95;;;;;;;;;;4995378;28;20358;-63
2023/09/28 04:01:03;;;;;;;21.05;11.32;;;;;;;;;;4995541;28;20026;-63
2023/09/28 04:03:28;;;;;;;20.33;11.50;;;;;;;;;;4986132;28;20480;-64
2023/09/28 04:05:54;;;;;;;16.77;11.10;;;;;;;;;;4976082;28;20118;-63
2023/09/28 04:08:19;;;;;;;16.63;11.25;;;;;;;;;;4975608;28;20022;-63
2023/09/28 04:10:45;;;;;;;18.45;11.75;;;;;;;;;;4975761;28;20058;-63
2023/09/28 04:13:10;;;;;;;22.67;12.18;;;;;;;;;;4975739;28;20079;-63
2023/09/28 04:15:35;;;;;;;14.45;11.20;;;;;;;;;;4976011;28;20420;-63
2023/09/28 04:18:01;;;;;;;15.02;12.18;;;;;;;;;;4975862;28;20041;-62
2023/09/28 04:20:26;;;;;;;17.30;11.75;;;;;;;;;;4975674;28;20031;-64
2023/09/28 04:22:52;;;;;;;20.35;12.00;;;;;;;;;;4975636;28;20023;-63
2023/09/28 04:25:19;;;;;;;14.38;11.48;;;;;;;;;;4975446;28;20061;-63
2023/09/28 04:27:45;;;;;;;19.27;11.63;;;;;;;;;;4973730;28;20035;-63
2023/09/28 04:30:11;;;;;;;14.73;11.50;;;;;;;;;;4975667;28;20082;-62
2023/09/28 04:32:37;;;;;;;15.90;11.70;;;;;;;;;;4975291;28;20481;-63
2023/09/28 04:35:06;;;;;;;19.63;11.63;;;;;;;;;;4975450;28;20037;-62
2023/09/28 04:37:32;;;;;;;23.65;12.18;;;;;;;;;;4975500;28;20038;-62
2023/09/28 04:39:57;;;;;;;15.10;8.68;;;;;;;;;;4985860;28;20472;-63
2023/09/28 04:42:22;;;;;;;16.67;10.40;;;;;;;;;;4977551;28;20026;-63
2023/09/28 04:44:49;;;;;;;17.65;11.00;;;;;;;;;;4975233;28;20027;-66
2023/09/28 04:47:14;;;;;;;13.73;9.82;;;;;;;;;;4975215;28;20030;-63
2023/09/28 04:49:41;;;;;;;16.95;10.25;;;;;;;;;;4975212;28;20053;-63
2023/09/28 04:52:06;;;;;;;17.52;11.10;;;;;;;;;;4975025;28;20030;-63
2023/09/28 04:54:33;;;;;;;18.92;9.75;;;;;;;;;;4975066;28;20027;-63
2023/09/28 04:56:58;;;;;;;17.90;9.38;;;;;;;;;;4974856;28;20031;-63
2023/09/28 04:59:23;;;;;;;15.27;9.73;;;;;;;;;;4973842;28;20033;-63
2023/09/28 05:01:49;;;;;;;18.48;9.43;;;;;;;;;;4974715;28;20019;-63
2023/09/28 05:04:16;;;;;;;19.55;8.70;;;;;;;;;;4963080;28;20023;-63
2023/09/28 05:06:42;;;;;;;13.48;9.55;;;;;;;;;;4955572;28;20035;-63
2023/09/28 05:09:07;;;;;;;15.55;10.18;;;;;;;;;;4955137;28;20123;-63
2023/09/28 05:11:33;;;;;;;12.20;8.82;;;;;;;;;;4955258;28;20058;-64
2023/09/28 05:13:58;;;;;;;15.70;9.82;;;;;;;;;;4955569;28;20046;-63
2023/09/28 05:16:23;;;;;;;15.07;9.82;;;;;;;;;;4955526;28;20055;-64
2023/09/28 05:18:49;;;;;;;12.25;9.48;;;;;;;;;;4955317;28;20030;-64
2023/09/28 05:21:14;;;;;;;19.48;10.75;;;;;;;;;;4955142;29;20492;-63
2023/09/28 05:23:40;;;;;;;12.90;9.65;;;;;;;;;;4967365;28;20117;-64
2023/09/28 05:26:06;;;;;;;15.25;8.60;;;;;;;;;;4974285;28;20027;-62
2023/09/28 05:28:31;;;;;;;11.73;8.93;;;;;;;;;;4974174;28;20044;-62
2023/09/28 05:30:57;;;;;;;19.20;9.63;;;;;;;;;;4974404;28;20054;-61
2023/09/28 05:33:22;;;;;;;17.42;10.27;;;;;;;;;;4974430;28;20510;-64
2023/09/28 05:35:48;;;;;;;17.35;9.40;;;;;;;;;;4974469;28;20420;-64
2023/09/28 05:38:13;;;;;;;17.52;9.80;;;;;;;;;;4973912;28;20031;-62
2023/09/28 05:40:38;;;;;;;17.23;10.02;;;;;;;;;;4987556;28;20033;-62
2023/09/28 05:43:04;;;;;;;13.82;9.63;;;;;;;;;;4974270;28;20023;-63
2023/09/28 05:45:32;;;;;;;14.80;9.00;;;;;;;;;;4973038;28;20050;-62
2023/09/28 05:47:57;;;;;;;16.77;8.95;;;;;;;;;;4973983;28;20047;-62
2023/09/28 05:50:22;;;;;;;18.92;10.05;;;;;;;;;;4974251;28;20029;-62
2023/09/28 05:52:52;;;;;;;15.38;9.93;;;;;;;;;;4973547;28;20030;-63
2023/09/28 05:55:17;;;;;;;12.45;9.20;;;;;;;;;;4973727;28;20026;-62
2023/09/28 05:57:43;;;;;;;12.70;9.10;;;;;;;;;;4973873;28;20081;-63
2023/09/28 06:00:09;;;;;;;13.75;9.63;;;;;;;;;;4974103;28;20023;-63
2023/09/28 06:02:35;;;;;;;15.52;9.13;;;;;;;;;;4974124;28;20022;-64
2023/09/28 06:05:01;;;;;;;15.63;9.55;;;;;;;;;;4966906;28;20031;-64
2023/09/28 06:07:26;;;;;;;13.57;9.27;;;;;;;;;;4954820;29;20038;-62
2023/09/28 06:09:52;;;;;;;21.55;9.48;;;;;;;;;;4954311;28;20027;-63
2023/09/28 06:12:17;;;;;;;15.38;9.55;;;;;;;;;;4954649;28;20039;-63
2023/09/28 06:14:43;;;;;;;12.73;8.02;;;;;;;;;;4954759;28;20027;-63
2023/09/28 06:17:08;;;;;;;18.02;7.80;;;;;;;;;;4954515;29;20035;-63
2023/09/28 06:19:34;;;;;;;13.48;7.40;;;;;;;;;;4954554;29;20027;-63
2023/09/28 06:22:00;;;;;;;11.43;7.25;;;;;;;;;;4954518;28;20027;-64
2023/09/28 06:24:26;;;;;;;11.48;7.05;;;;;;;;;;4972495;28;20039;-63
2023/09/28 06:26:53;;;;;;;17.52;8.38;;;;;;;;;;4973621;28;20029;-66
2023/09/28 06:29:19;;;;;;;14.25;6.85;;;;;;;;;;4973420;28;20035;-63
2023/09/28 06:31:44;;;;;;;12.43;7.22;;;;;;;;;;4974049;28;20039;-66
2023/09/28 06:34:10;;;;;;;30.35;8.23;;;;;;;;;;4971101;28;20026;-64
2023/09/28 06:36:35;;;;;;;15.18;7.32;;;;;;;;;;4983214;28;20034;-64
2023/09/28 06:39:01;;;;;;;11.93;6.53;;;;;;;;;;4965581;28;20034;-65
2023/09/28 06:41:28;;;;;;;17.75;6.38;;;;;;;;;;4978375;28;20050;-65
2023/09/28 06:43:54;;;;;;;9.63;6.47;;;;;;;;;;4980226;28;20065;-65
2023/09/28 06:46:21;;;;;;;18.65;7.53;;;;;;;;;;4986970;28;20050;-65
2023/09/28 06:48:46;;;;;;;13.10;6.38;;;;;;;;;;4981924;28;20104;-64
2023/09/28 06:51:12;;;;;;;17.88;6.70;;;;;;;;;;4980022;28;20428;-65
2023/09/28 06:53:41;;;;;;;22.70;7.60;;;;;;;;;;4986442;28;20109;-64
2023/09/28 06:56:06;;;;;;;19.15;7.20;;;;;;;;;;4977028;28;20039;-63
2023/09/28 06:58:32;;;;;;;19.30;6.25;;;;;;;;;;4989122;28;20423;-63
2023/09/28 07:00:58;;;;;;;42.22;8.27;;;;;;;;;;4972959;28;20144;-64
2023/09/28 07:03:24;;;;;;;22.13;6.30;;;;;;;;;;4974983;28;20027;-63
2023/09/28 07:05:49;;;;;;;13.35;5.95;;;;;;;;;;4988558;28;20440;-66
2023/09/28 07:08:14;;;;;;;14.95;6.22;;;;;;;;;;4976405;28;20431;-64
2023/09/28 07:10:40;;;;;;;16.08;6.25;;;;;;;;;;4992940;28;20030;-64
2023/09/28 07:13:06;;;;;;;12.13;5.55;;;;;;;;;;4996181;28;20022;-66
2023/09/28 07:15:32;;;;;;;11.68;6.38;;;;;;;;;;4996055;28;20110;-64
2023/09/28 07:17:59;;;;;;;12.25;6.03;;;;;;;;;;4996173;28;20397;-64
2023/09/28 07:20:26;;;;;;;11.13;5.97;;;;;;;;;;4995849;28;20026;-64
2023/09/28 07:22:51;;;;;;;13.25;6.47;;;;;;;;;;4989731;28;20110;-64
2023/09/28 07:25:17;;;;;;;9.55;6.07;;;;;;;;;;4976510;28;20149;-65
2023/09/28 07:27:45;;;;;;;12.30;6.00;;;;;;;;;;4976324;28;20121;-64
2023/09/28 07:30:11;;;;;;;8.70;5.57;;;;;;;;;;4976081;28;20026;-64
2023/09/28 07:32:38;;;;;;;17.33;6.50;;;;;;;;;;4974703;28;20027;-64
2023/09/28 07:35:04;;;;;;;10.25;5.35;;;;;;;;;;4976174;28;20027;-61
2023/09/28 07:37:29;;;;;;;7.88;5.47;;;;;;;;;;4976098;28;20034;-64
2023/09/28 07:39:55;;;;;;;9.40;6.03;;;;;;;;;;4976195;28;20421;-64
2023/09/28 07:42:20;;;;;;;10.82;5.50;;;;;;;;;;4976198;28;20042;-64
2023/09/28 07:44:51;;;;;;;13.43;5.90;;;;;;;;;;4976123;28;20027;-64
2023/09/28 07:47:18;;;;;;;11.73;6.25;;;;;;;;;;4976188;28;20031;-64
2023/09/28 07:49:44;;;;;;;10.38;5.75;;;;;;;;;;4975871;28;20109;-63
2023/09/28 07:52:09;;;;;;;12.95;6.03;;;;;;;;;;4975942;28;20031;-63
2023/09/28 07:54:36;;;;;;;8.23;5.28;;;;;;;;;;4975439;28;20023;-64
2023/09/28 07:57:04;;;;;;;9.40;5.47;;;;;;;;;;4975997;28;20060;-65
2023/09/28 07:59:31;;;;;;;11.32;5.53;;;;;;;;;;4975899;28;20026;-64
2023/09/28 08:01:57;;;;;;;9.55;5.22;;;;;;;;;;4975834;28;20026;-64
2023/09/28 08:04:22;;;;;;;10.20;5.60;;;;;;;;;;4975796;28;20082;-64
2023/09/28 08:06:48;;;;;;;10.85;4.97;;;;;;;;;;4969997;28;20023;-62
2023/09/28 08:09:14;;;;;;;13.15;5.40;;;;;;;;;;4956391;28;20035;-61
2023/09/28 08:11:41;;;;;;;10.85;5.50;;;;;;;;;;4956424;28;20034;-61
2023/09/28 08:14:59;;;;;;;9.88;4.90;;;;;;;;;;4956257;28;20167;-62
2023/09/28 08:17:25;;;;;;;13.73;5.50;;;;;;;;;;4955824;28;20070;-61
2023/09/28 08:19:51;;;;;;;8.70;4.43;;;;;;;;;;4956236;28;20067;-64
2023/09/28 08:22:17;;;;;;;8.90;4.97;;;;;;;;;;4957110;28;20089;-61
2023/09/28 08:24:43;;;;;;;16.80;5.40;;;;;;;;;;4973920;28;20082;-62
2023/09/28 08:27:09;;;;;;;13.25;5.30;;;;;;;;;;4974684;28;20027;-61
2023/09/28 08:29:35;;;;;;;8.60;5.25;;;;;;;;;;4974719;28;20027;-62
2023/09/28 08:32:01;;;;;;;18.50;6.28;;;;;;;;;;4975156;28;20121;-64
2023/09/28 08:34:26;;;;;;;9.25;4.85;;;;;;;;;;4974928;28;20571;-62
2023/09/28 08:36:52;;;;;;;10.52;4.95;;;;;;;;;;4974929;28;20106;-63
2023/09/28 08:39:17;;;;;;;11.38;4.80;;;;;;;;;;4973650;28;20138;-62
2023/09/28 08:41:45;;;;;;;11.20;4.85;;;;;;;;;;4974569;28;20023;-61
2023/09/28 08:44:12;;;;;;;9.32;4.68;;;;;;;;;;4974709;28;20539;-62
2023/09/28 08:46:38;;;;;;;11.10;4.95;;;;;;;;;;4974701;28;20485;-62
2023/09/28 08:49:08;;;;;;;9.30;4.88;;;;;;;;;;4974516;28;20082;-63
2023/09/28 08:51:38;;;;;;;9.57;4.82;;;;;;;;;;4974917;28;20022;-62
2023/09/28 08:54:07;;;;;;;13.45;4.70;;;;;;;;;;4974896;28;20034;-61
2023/09/28 08:56:38;;;;;;;11.30;4.97;;;;;;;;;;4974797;28;20555;-62
2023/09/28 08:59:04;;;;;;;11.40;4.90;;;;;;;;;;4974112;28;20054;-62
2023/09/28 09:01:31;;;;;;;8.55;5.00;;;;;;;;;;4973980;28;20030;-62
2023/09/28 09:03:57;;;;;;;10.23;4.93;;;;;;;;;;4973931;28;20030;-62
2023/09/28 09:06:24;;;;;;;9.98;5.43;;;;;;;;;;4973905;28;20049;-63
2023/09/28 09:08:53;;;;;;;10.32;4.55;;;;;;;;;;4974244;28;20031;-61
2023/09/28 09:11:19;;;;;;;11.10;5.07;;;;;;;;;;4974158;28;20106;-63
2023/09/28 09:13:54;;;;;;;12.88;5.32;;;;;;;;;;4974012;28;20476;-62
2023/09/28 09:16:22;;;;;;;12.52;5.03;;;;;;;;;;4978248;28;20353;-61
2023/09/28 09:18:48;;;;;;;8.02;5.13;;;;;;;;;;4975051;28;20468;-62
2023/09/28 09:21:14;;;;;;;10.07;4.38;;;;;;;;;;4974337;28;20037;-62
2023/09/28 09:23:39;;;;;;;16.13;5.57;;;;;;;;;;4974241;28;20106;-62
2023/09/28 09:26:15;;;;;;;10.93;5.25;;;;;;;;;;4974227;28;20031;-62
2023/09/28 09:28:43;;;;;;;8.32;4.50;;;;;;;;;;4973220;28;20068;-61
2023/09/28 09:31:09;;;;;;;11.70;5.07;;;;;;;;;;4974925;28;20023;-62
2023/09/28 09:33:38;;;;;;;11.25;4.95;;;;;;;;;;4974036;28;20380;-62
2023/09/28 09:36:05;;;;;;;8.73;4.85;;;;;;;;;;4973966;28;20106;-62
2023/09/28 09:38:31;;;;;;;10.23;4.88;;;;;;;;;;4973567;28;20038;-62
2023/09/28 09:41:06;;;;;;;13.68;5.13;;;;;;;;;;4965463;28;20074;-62
2023/09/28 09:43:36;;;;;;;12.85;5.03;;;;;;;;;;4971985;28;20538;-62
2023/09/28 09:46:09;;;;;;;8.70;4.57;;;;;;;;;;4973439;28;20038;-64
2023/09/28 09:48:40;;;;;;;8.70;5.25;;;;;;;;;;4973535;28;20039;-64
2023/09/28 09:51:15;;;;;;;10.35;4.70;;;;;;;;;;4970357;28;20038;-62
2023/09/28 09:53:44;;;;;;;7.40;4.95;;;;;;;;;;4972359;28;20022;-65
2023/09/28 09:56:11;;;;;;;;;;;;;;;;;;4974140;28;20018;-64
2023/09/28 09:58:40;;;;;;;11.43;5.10;;;;;;;;;;4973509;28;19917;-64
2023/09/28 10:01:11;;;;;;;14.95;5.45;;;;;;;;;;4970916;28;20476;-62
2023/09/28 10:03:41;;;;;;;11.75;5.00;;;;;;;;;;4973626;28;20089;-63
2023/09/28 10:06:07;;;;;;;12.02;5.05;;;;;;;;;;4973872;28;20027;-64
2023/09/28 10:08:32;;;;;;;11.23;5.05;;;;;;;;;;4973317;28;20069;-68
2023/09/28 10:11:01;;;;;;;10.68;4.28;;;;;;;;;;4973779;28;20035;-62
2023/09/28 10:13:31;;;;;;;11.57;5.30;;;;;;;;;;4973933;28;20045;-65
2023/09/28 10:15:57;;;;;;;;;;;;;;;;;;4973792;28;20094;-62
2023/09/28 10:18:22;;;;;;;10.00;4.88;;;;;;;;;;4973760;28;19914;-63
2023/09/28 10:20:48;;;;;;;16.20;5.07;;;;;;;;;;4973924;28;20082;-63
2023/09/28 10:23:23;;;;;;;13.68;5.13;;;;;;;;;;4974527;28;20053;-63
2023/09/28 10:26:16;;;;;;;11.38;5.03;;;;;;;;;;4973529;28;20058;-63
2023/09/28 10:29:04;;;;;;;9.95;4.47;;;;;;;;;;4972876;28;20354;-63
2023/09/28 10:31:53;;;;;;;9.52;5.63;;;;;;;;;;4973206;28;20034;-64
2023/09/28 10:34:19;;;;;;;;;;;;;;;;;;4973917;28;20030;-64
2023/09/28 10:37:18;;;;;;;9.52;5.00;;;;;;;;;;4973328;28;19986;-65
2023/09/28 10:39:54;;;;;;;7.70;4.75;;;;;;;;;;4975630;28;20476;-64
2023/09/28 10:42:22;;;;;;;7.60;5.35;;;;;;;;;;4976988;28;20029;-67
2023/09/28 10:44:56;;;;;;;8.50;5.93;;;;;;;;;;4976612;28;20022;-64
2023/09/28 10:47:25;;;;;;;8.77;4.97;;;;;;;;;;4976582;28;20058;-65
2023/09/28 10:50:01;;;;;;;8.98;4.45;;;;;;;;;;4976529;28;20047;-64
2023/09/28 10:52:28;;;;;;;9.70;5.05;;;;;;;;;;4974429;28;20031;-67
2023/09/28 10:54:54;;;;;;;10.40;5.00;;;;;;;;;;4977239;28;20117;-65
2023/09/28 10:57:28;;;;;;;11.23;5.03;;;;;;;;;;4977172;28;20058;-64
2023/09/28 11:00:00;;;;;;;8.30;5.28;;;;;;;;;;4976967;28;20031;-67
2023/09/28 11:02:25;;;;;;;9.90;4.90;;;;;;;;;;4976878;28;20035;-64
2023/09/28 11:04:51;;;;;;;10.77;5.25;;;;;;;;;;4976883;28;20402;-67
2023/09/28 11:07:16;;;;;;;7.43;4.65;;;;;;;;;;4976973;28;20034;-64
2023/09/28 11:09:42;;;;;;;11.57;4.88;;;;;;;;;;4972300;28;20074;-67
2023/09/28 11:12:11;;;;;;;13.52;5.32;;;;;;;;;;4957497;28;20464;-67
2023/09/28 11:14:41;;;;;;;12.57;5.30;;;;;;;;;;4957298;28;20516;-66
2023/09/28 11:17:09;;;;;;;8.82;5.13;;;;;;;;;;4976562;28;20076;-65
2023/09/28 11:19:35;;;;;;;8.05;4.70;;;;;;;;;;4976758;28;20022;-67
2023/09/28 11:22:00;;;;;;;8.60;5.30;;;;;;;;;;4977642;28;20053;-64
2023/09/28 11:24:26;;;;;;;9.93;5.22;;;;;;;;;;4976254;28;20473;-64
2023/09/28 11:26:52;;;;;;;12.20;5.28;;;;;;;;;;4976231;28;20030;-64
2023/09/28 11:29:17;;;;;;;14.20;5.18;;;;;;;;;;4976381;28;20130;-64
2023/09/28 11:31:50;;;;;;;12.75;4.72;;;;;;;;;;4976490;28;20472;-61
2023/09/28 11:34:28;;;;;;;10.43;4.70;;;;;;;;;;4976296;28;20081;-65
2023/09/28 11:36:55;;;;;;;11.80;5.30;;;;;;;;;;4976211;28;20498;-61
2023/09/28 11:39:23;;;;;;;13.68;5.13;;;;;;;;;;4976192;28;20094;-62
2023/09/28 11:42:00;;;;;;;14.48;5.20;;;;;;;;;;4976210;28;20030;-64
2023/09/28 11:44:29;;;;;;;14.05;4.97;;;;;;;;;;4975755;28;20484;-62
2023/09/28 11:46:55;;;;;;;7.25;4.70;;;;;;;;;;4976033;28;20046;-63
2023/09/28 11:49:22;;;;;;;9.07;4.93;;;;;;;;;;4975579;28;20133;-63
2023/09/28 11:51:48;;;;;;;7.80;5.30;;;;;;;;;;4975201;28;20119;-63
2023/09/28 11:54:16;;;;;;;11.15;5.47;;;;;;;;;;4976157;28;20524;-62
2023/09/28 11:56:42;;;;;;;11.98;5.25;;;;;;;;;;4975833;28;20043;-63
2023/09/28 11:59:09;;;;;;;9.68;5.07;;;;;;;;;;4975643;28;20038;-63
2023/09/28 12:01:35;;;;;;;12.65;5.10;;;;;;;;;;4975843;28;20039;-63
2023/09/28 12:04:00;;;;;;;11.63;5.68;;;;;;;;;;4975806;28;20491;-62
2023/09/28 12:06:26;;;;;;;7.25;4.80;;;;;;;;;;4973969;28;20455;-63
2023/09/28 12:08:52;;;;;;;10.13;5.20;;;;;;;;;;4975339;28;20030;-64
2023/09/28 12:11:18;;;;;;;11.10;5.28;;;;;;;;;;4975504;28;20023;-64
2023/09/28 12:13:44;;;;;;;12.02;5.35;;;;;;;;;;4975331;28;20023;-62
2023/09/28 12:16:09;;;;;;;11.77;6.72;;;;;;;;;;4975369;28;20117;-65
2023/09/28 12:18:35;;;;;;;13.63;5.40;;;;;;;;;;4975258;28;20493;-62
2023/09/28 12:21:02;;;;;;;9.73;5.32;;;;;;;;;;4974752;28;20283;-64
2023/09/28 12:23:28;;;;;;;13.30;5.50;;;;;;;;;;4975770;28;20065;-63
2023/09/28 12:25:54;;;;;;;10.18;5.07;;;;;;;;;;4975281;28;20063;-62
2023/09/28 12:28:22;;;;;;;16.77;5.75;;;;;;;;;;4974563;28;20070;-62
2023/09/28 12:30:47;;;;;;;10.50;5.30;;;;;;;;;;4975348;28;20034;-63
2023/09/28 12:33:13;;;;;;;11.65;5.20;;;;;;;;;;4975285;28;20029;-62
2023/09/28 12:35:39;;;;;;;7.82;5.18;;;;;;;;;;4975142;28;20030;-64
2023/09/28 12:38:08;;;;;;;10.88;5.15;;;;;;;;;;4975232;28;20038;-63
2023/09/28 12:40:34;;;;;;;12.02;5.82;;;;;;;;;;4984383;28;20030;-64
2023/09/28 12:43:02;;;;;;;14.80;5.30;;;;;;;;;;4981470;28;20470;-63
2023/09/28 12:45:32;;;;;;;9.88;6.10;;;;;;;;;;4974920;28;20085;-62
2023/09/28 12:47:59;;;;;;;7.90;5.28;;;;;;;;;;4974387;28;20050;-62
2023/09/28 12:50:24;;;;;;;12.25;5.80;;;;;;;;;;4972836;28;20122;-62
2023/09/28 12:52:50;;;;;;;10.82;5.55;;;;;;;;;;4974363;28;20034;-62
2023/09/28 12:55:15;;;;;;;13.82;5.32;;;;;;;;;;4972673;28;20023;-62
2023/09/28 12:57:41;;;;;;;13.02;5.68;;;;;;;;;;4974201;28;20107;-65
2023/09/28 13:00:10;;;;;;;17.30;5.28;;;;;;;;;;4974210;28;20073;-64
2023/09/28 13:02:35;;;;;;;11.82;5.45;;;;;;;;;;4974458;28;20030;-62
2023/09/28 13:05:01;;;;;;;11.10;5.05;;;;;;;;;;4974504;28;20053;-62
2023/09/28 13:07:27;;;;;;;7.53;5.15;;;;;;;;;;4973314;28;20027;-62
2023/09/28 13:09:52;;;;;;;9.10;4.82;;;;;;;;;;4974354;28;20030;-62
2023/09/28 13:12:17;;;;;;;9.23;5.10;;;;;;;;;;4974405;28;20045;-62
2023/09/28 13:14:43;;;;;;;7.32;4.85;;;;;;;;;;4974150;28;20477;-63
2023/09/28 13:17:11;;;;;;;9.05;5.18;;;;;;;;;;4974309;28;20035;-63
2023/09/28 13:19:39;;;;;;;7.28;4.65;;;;;;;;;;4974423;28;20436;-64
2023/09/28 13:22:04;;;;;;;8.55;4.70;;;;;;;;;;4974205;28;20031;-62
2023/09/28 13:24:31;;;;;;;10.68;5.00;;;;;;;;;;4973668;28;20387;-63
2023/09/28 13:27:00;;;;;;;9.98;5.30;;;;;;;;;;4974157;28;20031;-62
2023/09/28 13:29:26;;;;;;;10.57;4.50;;;;;;;;;;4973980;28;20491;-62
2023/09/28 13:31:51;;;;;;;16.85;4.55;;;;;;;;;;4974412;28;20062;-62
2023/09/28 13:34:20;;;;;;;9.75;4.60;;;;;;;;;;4974039;28;20110;-62
2023/09/28 13:36:45;;;;;;;13.93;4.60;;;;;;;;;;4973814;28;20027;-62
2023/09/28 13:39:26;;;;;;;10.73;4.07;;;;;;;;;;4973705;28;20535;-65
2023/09/28 13:42:00;;;;;;;8.30;4.60;;;;;;;;;;4973711;28;20039;-65
2023/09/28 13:44:27;;;;;;;9.18;4.80;;;;;;;;;;4973568;28;20103;-62
2023/09/28 13:46:53;;;;;;;9.98;4.78;;;;;;;;;;4973916;28;20437;-65
2023/09/28 13:49:20;;;;;;;9.40;5.10;;;;;;;;;;4973629;28;20232;-65
2023/09/28 13:51:47;;;;;;;12.93;5.25;;;;;;;;;;4972405;28;20427;-62
2023/09/28 13:54:14;;;;;;;13.57;5.10;;;;;;;;;;4973541;28;20388;-62
2023/09/28 13:56:40;;;;;;;10.35;5.10;;;;;;;;;;4973524;28;20035;-62
2023/09/28 13:59:09;;;;;;;8.68;4.72;;;;;;;;;;4972458;28;20027;-62
2023/09/28 14:01:40;;;;;;;7.93;4.63;;;;;;;;;;4973652;28;20031;-62
2023/09/28 14:04:06;;;;;;;9.02;4.70;;;;;;;;;;4973640;28;20261;-62
2023/09/28 14:06:31;;;;;;;11.23;4.22;;;;;;;;;;4972970;28;20034;-62
2023/09/28 14:08:57;;;;;;;6.70;4.40;;;;;;;;;;4973564;28;20489;-62
2023/09/28 14:11:24;;;;;;;6.53;4.28;;;;;;;;;;4973435;28;20066;-62
2023/09/28 14:13:49;;;;;;;11.07;4.70;;;;;;;;;;4975213;28;20034;-62
2023/09/28 14:16:15;;;;;;;13.85;5.20;;;;;;;;;;4979958;28;20119;-62
2023/09/28 14:18:42;;;;;;;8.52;4.50;;;;;;;;;;4979866;28;20035;-63
2023/09/28 14:21:07;;;;;;;8.65;5.00;;;;;;;;;;4979871;28;20077;-62
2023/09/28 14:23:32;;;;;;;9.77;4.55;;;;;;;;;;4980577;28;20476;-65
2023/09/28 14:25:58;;;;;;;13.27;5.10;;;;;;;;;;4980425;28;20077;-64
2023/09/28 14:28:23;;;;;;;6.45;4.50;;;;;;;;;;4979734;28;20030;-67